• Join FlightAware (Why Join?)
  • Login
  • US Flag GB Flag 
16:02 EST


 

Airport Tracker/Info


-or-


 

Live Flight TrackerFlight Track Log ✈ USC110 ✈ 19-Jun-2013 ✈ KCLT - KLCK

Flight Track Log - Related Links

Times and Time Zones

All times are in EDT time to prevent confusion due to time zone crossing. See the USC110 flight status page for this flight to view local times or setup timezone preferences in your user account.

Time Position Orientation Groundspeed Altitude Reporting Facility
EDT Latitude Longitude Course Direction KTS MPH feet Rate Location/Type
07:36 35.2236 -80.9956 269° West 123 142 3,100  Level Atlanta Center
07:37 35.2161 -81.0339 257° West 111 128 4,500 900 Climbing Atlanta Center
07:38 35.2194 -81.0847 275° West 140 161 5,100 240 Climbing Atlanta Center
07:39 35.2333 -81.1400 287° West 181 208 5,100 -60 Level Atlanta Center
07:40 35.2717 -81.1717 326° Northwest 177 204 5,000 600 Descending Atlanta Center
07:41 35.3161 -81.1931 339° North 130 150 6,400 1,140 Climbing Atlanta Center
07:42 35.3369 -81.1975 350° North 84 97 7,400 840 Climbing Atlanta Center
07:43 35.3686 -81.2142 337° Northwest 112 129 8,100 240 Climbing Atlanta Center
07:44 35.4128 -81.2306 343° North 155 178 8,000 -60 Descending Atlanta Center
07:45 35.4633 -81.2467 345° North 165 190 8,000  Level Atlanta Center
07:46 35.5094 -81.2631 344° North 165 190 8,000  Level Atlanta Center
07:47 35.5517 -81.2819 340° North 165 190 8,000  Level Atlanta Center
07:48 35.5981 -81.2983 344° North 170 196 8,000  Level Atlanta Center
07:49 35.6400 -81.3122 345° North 170 196 8,000  Level Atlanta Center
07:50 35.6842 -81.3261 346° North 165 190 8,000  Level Atlanta Center
07:51 35.7261 -81.3425 342° North 165 190 8,000  Level Atlanta Center
07:52 35.7725 -81.3589 344° North 165 190 8,000  Level Atlanta Center
07:53 35.8167 -81.3756 343° North 165 190 8,000  Level Atlanta Center
07:54 35.8650 -81.3944 342° North 165 190 8,000  Level Atlanta Center
07:55 35.9111 -81.4108 344° North 165 190 8,000  Level Atlanta Center
07:56 35.9553 -81.4272 343° North 165 190 8,000  Level Atlanta Center
07:57 35.9994 -81.4414 345° North 165 190 8,000  Level Atlanta Center
07:58 36.0436 -81.4578 343° North 165 190 8,000  Level Atlanta Center
07:59 36.0878 -81.4719 345° North 160 184 8,000  Level Atlanta Center
08:00 36.1319 -81.4886 343° North 160 184 8,000  Level Atlanta Center
08:01 36.1719 -81.5053 341° North 160 184 8,000  Level Atlanta Center
08:02 36.2117 -81.5194 344° North 160 184 8,000  Level Atlanta Center
08:03 36.2558 -81.5361 343° North 160 184 8,000  Level Atlanta Center
08:04 36.2978 -81.5475 348° North 160 184 8,000  Level Atlanta Center
08:05 36.3419 -81.5669 340° North 160 184 8,000  Level Atlanta Center
08:06 36.3861 -81.5861 341° North 160 184 8,000  Level Atlanta Center
08:07 36.4303 -81.6003 346° North 166 191 8,000  Level Atlanta Center
08:08 36.4744 -81.6144 346° North 166 191 8,000  Level Atlanta Center
08:09 36.5228 -81.6361 340° North 166 191 8,000  Level Atlanta Center
08:10 36.5669 -81.6531 343° North 166 191 8,000  Level Atlanta Center
08:11 36.6153 -81.6722 342° North 166 191 8,000  Level Atlanta Center
08:12 36.6572 -81.6864 345° North 166 191 8,000  Level Atlanta Center
08:13 36.6992 -81.7033 342° North 166 191 8,000  Level Atlanta Center
08:14 36.7433 -81.7203 343° North 166 191 8,000  Level Atlanta Center
08:15 36.7853 -81.7344 345° North 166 191 8,000  Level Atlanta Center
08:17 36.8586 -81.7603 344° North 161 185 8,000  Level Indianapolis Center
08:18 36.9011 -81.7758 344° North 160 184 8,000  Level Indianapolis Center
08:19 36.9525 -81.7967 342° North 164 189 8,000 -60 Level Indianapolis Center
08:20 36.9964 -81.8125 344° North 164 189 7,900  Descending Indianapolis Center
08:21 37.0422 -81.8281 345° North 168 193 8,000  Climbing Indianapolis Center
08:22 37.0864 -81.8456 342° North 166 191 8,000  Level Indianapolis Center
08:23 37.1306 -81.8619 344° North 165 190 8,000  Level Indianapolis Center
08:24 37.1753 -81.8792 343° North 167 192 8,000  Level Indianapolis Center
08:25 37.2278 -81.8997 343° North 169 194 8,000  Level Indianapolis Center
08:27 37.2717 -81.9189 341° North 168 193 8,000  Level Indianapolis Center
08:28 37.3175 -81.9350 344° North 169 194 8,000  Level Indianapolis Center
08:29 37.3611 -81.9528 342° North 165 190 8,000  Level Indianapolis Center
08:30 37.4067 -81.9697 344° North 169 194 8,000  Level Indianapolis Center
08:31 37.4589 -81.9872 345° North 167 192 8,000  Level Indianapolis Center
08:32 37.5044 -82.0056 342° North 172 198 8,000  Level Indianapolis Center
08:33 37.5486 -82.0222 343° North 167 192 8,000  Level Indianapolis Center
08:34 37.5931 -82.0397 343° North 167 192 8,000  Level Indianapolis Center
08:35 37.6364 -82.0572 342° North 165 190 8,000  Level Indianapolis Center
08:36 37.6806 -82.0747 343° North 165 190 8,000  Level Indianapolis Center
08:37 37.7306 -82.0942 343° North 163 188 8,000  Level Indianapolis Center
08:38 37.7736 -82.1128 341° North 163 188 8,000  Level Indianapolis Center
08:39 37.8161 -82.1292 343° North 160 184 8,000 -60 Level Indianapolis Center
08:40 37.8603 -82.1461 343° North 163 188 7,900 -60 Descending Indianapolis Center
08:41 37.9031 -82.1633 342° North 163 188 7,900  Level Indianapolis Center
08:42 37.9461 -82.1794 344° North 162 186 7,900  Level Indianapolis Center
08:43 37.9964 -82.1972 344° North 161 185 7,900  Level Indianapolis Center
08:44 38.0394 -82.2147 342° North 162 186 7,900  Level Indianapolis Center
08:45 38.0825 -82.2306 344° North 161 185 7,900  Level Indianapolis Center
08:46 38.1272 -82.2478 343° North 160 184 7,900  Level Indianapolis Center
08:47 38.1708 -82.2650 343° North 162 186 7,900  Level Indianapolis Center
08:48 38.2142 -82.2814 343° North 162 186 7,900  Level Indianapolis Center
08:49 38.2586 -82.2989 343° North 165 190 7,900  Level Indianapolis Center
08:50 38.3033 -82.3150 344° North 167 192 7,900  Level Indianapolis Center
08:51 38.3464 -82.3333 342° North 164 189 7,900  Level Indianapolis Center
08:52 38.3992 -82.3536 343° North 164 189 7,900  Level Indianapolis Center
08:53 38.4428 -82.3714 342° North 164 189 7,900  Level Indianapolis Center
08:54 38.4872 -82.3883 343° North 166 191 7,900  Level Indianapolis Center
08:55 38.5297 -82.4067 341° North 162 186 7,900  Level Indianapolis Center
08:56 38.5744 -82.4233 344° North 165 190 7,900  Level Indianapolis Center
08:57 38.6181 -82.4428 341° North 165 190 7,900  Level Indianapolis Center
08:58 38.6619 -82.4597 343° North 165 190 7,900  Level Indianapolis Center
09:00 38.7061 -82.4775 343° North 166 191 7,900  Level Indianapolis Center
09:01 38.7589 -82.4983 343° North 166 191 7,900  Level Indianapolis Center
09:02 38.8025 -82.5175 341° North 165 190 7,900  Level Indianapolis Center
09:03 38.8478 -82.5353 343° North 167 192 7,900  Level Indianapolis Center
09:04 38.8925 -82.5508 345° North 166 191 7,900  Level Indianapolis Center
09:05 38.9364 -82.5711 340° North 168 193 7,900  Level Indianapolis Center
09:06 38.9800 -82.5872 344° North 163 188 7,900  Level Indianapolis Center
09:07 39.0225 -82.6064 341° North 162 186 7,900  Level Indianapolis Center
09:08 39.0669 -82.6228 344° North 164 189 7,900  Level Indianapolis Center
09:09 39.1181 -82.6436 342° North 161 185 7,900  Level Indianapolis Center
09:10 39.1606 -82.6617 342° North 161 185 7,900  Level Indianapolis Center
09:11 39.2003 -82.6758 345° North 162 186 8,000  Climbing Indianapolis Center
09:12 39.2489 -82.6967 342° North 159 183 8,000  Level Indianapolis Center
09:13 39.2814 -82.7103 342° North 161 185 8,000  Level Indianapolis Center
09:14 39.3358 -82.7311 344° North 161 185 8,000  Level Indianapolis Center
09:15 39.3783 -82.7486 342° North 159 183 8,000  Level Indianapolis Center
09:16 39.4178 -82.7686 339° North 159 183 8,000  Level Indianapolis Center
09:17 39.4628 -82.7839 345° North 158 182 8,000 -360 Level Indianapolis Center
09:18 39.5094 -82.8031 342° North 168 193 7,300 -840 Descending Indianapolis Center
09:19 39.5639 -82.8239 344° North 175 201 6,300 -840 Descending Indianapolis Center
09:20 39.6100 -82.8461 340° North 176 203 5,500 -900 Descending Indianapolis Center
09:21 39.6478 -82.8644 340° North 177 204 4,700 -780 Descending Indianapolis Center
09:22 39.7036 -82.8831 346° North 174 200 4,000 -840 Descending Indianapolis Center
09:23 39.7494 -82.9086 337° Northwest 173 199 2,900 -1,260 Descending Indianapolis Center
09:24 39.7847 -82.9425 324° Northwest 162 186 1,600 -780 Descending Indianapolis Center
09:25 39.8214 -82.9728 328° Northwest 170 196 1,300 -300 Descending Indianapolis Center
09:27 39.8138 -82.9278 142° Southeast  Level Estimated